Terminal Aerodrome Forecast
Issued by NWS

Home | Current Version | Previous Version | Text Only | Print | Product List | Glossary On
Versions: 1 2 3 4 5 6 7 8 9 10 11 12 13 14 15 16 17 18
494
FTUS44 KMAF 270628 AAA
TAFCNM
TAF AMD
KCNM 270628Z 2706/2806 28006KT P6SM SKC
     FM271200 27008KT P6SM SKC
     FM271600 25014G24KT P6SM FEW250
     FM280200 23005KT P6SM SKC=

USA.gov is the U.S. government's official web portal to all federal, state and local government web resources and services.